sensor_id;sensor_type;location;lat;lon;timestamp;temperature;humidity
52565;DHT22;38460;53.106;7.004;2023-05-27T00:00:04;8.20;99.90
52565;DHT22;38460;53.106;7.004;2023-05-27T00:02:30;8.20;99.90
52565;DHT22;38460;53.106;7.004;2023-05-27T00:04:56;8.20;99.90
52565;DHT22;38460;53.106;7.004;2023-05-27T00:07:22;8.20;99.90
52565;DHT22;38460;53.106;7.004;2023-05-27T00:09:48;8.20;99.90
52565;DHT22;38460;53.106;7.004;2023-05-27T00:12:13;8.20;99.90
52565;DHT22;38460;53.106;7.004;2023-05-27T00:14:39;8.20;99.90
52565;DHT22;38460;53.106;7.004;2023-05-27T00:17:05;8.20;99.90
52565;DHT22;38460;53.106;7.004;2023-05-27T00:19:31;8.10;99.90
52565;DHT22;38460;53.106;7.004;2023-05-27T00:21:57;8.10;99.90
52565;DHT22;38460;53.106;7.004;2023-05-27T00:24:23;8.10;99.90
52565;DHT22;38460;53.106;7.004;2023-05-27T00:26:49;8.00;99.90
52565;DHT22;38460;53.106;7.004;2023-05-27T00:29:18;8.00;99.90
52565;DHT22;38460;53.106;7.004;2023-05-27T00:31:43;8.00;99.90
52565;DHT22;38460;53.106;7.004;2023-05-27T00:34:09;6.90;99.90
52565;DHT22;38460;53.106;7.004;2023-05-27T00:36:35;8.00;99.90
52565;DHT22;38460;53.106;7.004;2023-05-27T00:39:01;7.90;99.90
52565;DHT22;38460;53.106;7.004;2023-05-27T00:41:27;7.90;99.90
52565;DHT22;38460;53.106;7.004;2023-05-27T00:43:55;7.90;99.90
52565;DHT22;38460;53.106;7.004;2023-05-27T00:46:21;7.90;99.90
52565;DHT22;38460;53.106;7.004;2023-05-27T00:48:47;7.90;99.90
52565;DHT22;38460;53.106;7.004;2023-05-27T00:51:14;7.90;99.90
52565;DHT22;38460;53.106;7.004;2023-05-27T00:53:41;7.90;99.90
52565;DHT22;38460;53.106;7.004;2023-05-27T00:56:08;7.80;99.90
52565;DHT22;38460;53.106;7.004;2023-05-27T00:58:35;7.80;99.90
52565;DHT22;38460;53.106;7.004;2023-05-27T01:01:02;7.80;99.90
52565;DHT22;38460;53.106;7.004;2023-05-27T01:03:28;7.70;99.90
52565;DHT22;38460;53.106;7.004;2023-05-27T01:06:08;7.70;99.90
52565;DHT22;38460;53.106;7.004;2023-05-27T01:11:30;7.70;99.90
52565;DHT22;38460;53.106;7.004;2023-05-27T01:14:00;7.60;99.90
52565;DHT22;38460;53.106;7.004;2023-05-27T01:16:28;7.60;99.90
52565;DHT22;38460;53.106;7.004;2023-05-27T01:18:58;7.60;99.90
52565;DHT22;38460;53.106;7.004;2023-05-27T01:21:26;7.60;99.90
52565;DHT22;38460;53.106;7.004;2023-05-27T01:24:02;7.60;99.90
52565;DHT22;38460;53.106;7.004;2023-05-27T01:26:28;7.50;99.90
52565;DHT22;38460;53.106;7.004;2023-05-27T01:28:54;7.50;99.90
52565;DHT22;38460;53.106;7.004;2023-05-27T01:31:31;7.50;99.90
52565;DHT22;38460;53.106;7.004;2023-05-27T01:34:02;7.50;99.90
52565;DHT22;38460;53.106;7.004;2023-05-27T01:36:33;7.50;99.90
52565;DHT22;38460;53.106;7.004;2023-05-27T01:39:02;7.50;99.90
52565;DHT22;38460;53.106;7.004;2023-05-27T01:41:29;7.40;99.90
52565;DHT22;38460;53.106;7.004;2023-05-27T01:43:56;7.40;99.90
52565;DHT22;38460;53.106;7.004;2023-05-27T01:46:22;7.40;99.90
52565;DHT22;38460;53.106;7.004;2023-05-27T01:48:48;7.40;99.90
52565;DHT22;38460;53.106;7.004;2023-05-27T01:51:14;7.40;99.90
52565;DHT22;38460;53.106;7.004;2023-05-27T01:53:39;7.40;99.90
52565;DHT22;38460;53.106;7.004;2023-05-27T01:56:05;7.30;99.90
52565;DHT22;38460;53.106;7.004;2023-05-27T01:58:31;7.30;99.90
52565;DHT22;38460;53.106;7.004;2023-05-27T02:00:56;7.30;99.90
52565;DHT22;38460;53.106;7.004;2023-05-27T02:03:22;7.30;99.90
52565;DHT22;38460;53.106;7.004;2023-05-27T02:05:48;7.20;99.90
52565;DHT22;38460;53.106;7.004;2023-05-27T02:08:13;7.20;99.90
52565;DHT22;38460;53.106;7.004;2023-05-27T02:10:39;7.20;99.90
52565;DHT22;38460;53.106;7.004;2023-05-27T02:13:05;7.20;99.90
52565;DHT22;38460;53.106;7.004;2023-05-27T02:15:31;7.20;99.90
52565;DHT22;38460;53.106;7.004;2023-05-27T02:17:57;7.20;99.90
52565;DHT22;38460;53.106;7.004;2023-05-27T02:20:24;7.20;99.90
52565;DHT22;38460;53.106;7.004;2023-05-27T02:22:50;7.20;99.90
52565;DHT22;38460;53.106;7.004;2023-05-27T02:25:16;7.20;99.90
52565;DHT22;38460;53.106;7.004;2023-05-27T02:27:42;7.20;99.90
52565;DHT22;38460;53.106;7.004;2023-05-27T02:30:13;7.20;99.90
52565;DHT22;38460;53.106;7.004;2023-05-27T02:32:40;7.20;99.90
52565;DHT22;38460;53.106;7.004;2023-05-27T02:35:07;7.20;99.90
52565;DHT22;38460;53.106;7.004;2023-05-27T02:37:33;7.20;99.90
52565;DHT22;38460;53.106;7.004;2023-05-27T02:39:58;7.20;99.90
52565;DHT22;38460;53.106;7.004;2023-05-27T02:42:24;7.20;99.90
52565;DHT22;38460;53.106;7.004;2023-05-27T02:44:50;7.20;99.90
52565;DHT22;38460;53.106;7.004;2023-05-27T02:47:16;7.10;99.90
52565;DHT22;38460;53.106;7.004;2023-05-27T02:49:42;7.10;99.90
52565;DHT22;38460;53.106;7.004;2023-05-27T02:52:07;7.10;99.90
52565;DHT22;38460;53.106;7.004;2023-05-27T02:54:33;7.10;99.90
52565;DHT22;38460;53.106;7.004;2023-05-27T02:56:59;7.10;99.90
52565;DHT22;38460;53.106;7.004;2023-05-27T02:59:25;7.10;99.90
52565;DHT22;38460;53.106;7.004;2023-05-27T03:01:50;7.00;99.90
52565;DHT22;38460;53.106;7.004;2023-05-27T03:04:16;7.10;99.90
52565;DHT22;38460;53.106;7.004;2023-05-27T03:06:42;7.10;99.90
52565;DHT22;38460;53.106;7.004;2023-05-27T03:09:08;7.10;99.90
52565;DHT22;38460;53.106;7.004;2023-05-27T03:11:34;7.10;99.90
52565;DHT22;38460;53.106;7.004;2023-05-27T03:13:59;7.10;99.90
52565;DHT22;38460;53.106;7.004;2023-05-27T03:16:25;7.10;99.90
52565;DHT22;38460;53.106;7.004;2023-05-27T03:18:51;7.10;99.90
52565;DHT22;38460;53.106;7.004;2023-05-27T03:21:17;7.10;99.90
52565;DHT22;38460;53.106;7.004;2023-05-27T03:23:42;7.10;99.90
52565;DHT22;38460;53.106;7.004;2023-05-27T03:26:08;7.10;99.90
52565;DHT22;38460;53.106;7.004;2023-05-27T03:28:34;7.10;99.90
52565;DHT22;38460;53.106;7.004;2023-05-27T03:31:00;7.10;99.90
52565;DHT22;38460;53.106;7.004;2023-05-27T03:33:25;7.10;99.90
52565;DHT22;38460;53.106;7.004;2023-05-27T03:35:51;7.10;99.90
52565;DHT22;38460;53.106;7.004;2023-05-27T03:38:17;8.00;99.90
52565;DHT22;38460;53.106;7.004;2023-05-27T03:40:43;7.20;99.90
52565;DHT22;38460;53.106;7.004;2023-05-27T03:43:08;7.20;99.90
52565;DHT22;38460;53.106;7.004;2023-05-27T03:45:34;7.20;99.90
52565;DHT22;38460;53.106;7.004;2023-05-27T03:48:00;7.10;99.90
52565;DHT22;38460;53.106;7.004;2023-05-27T03:50:25;7.20;99.90
52565;DHT22;38460;53.106;7.004;2023-05-27T03:52:51;7.20;99.90
52565;DHT22;38460;53.106;7.004;2023-05-27T03:55:17;7.20;99.90
52565;DHT22;38460;53.106;7.004;2023-05-27T03:57:43;7.20;99.90
52565;DHT22;38460;53.106;7.004;2023-05-27T04:00:09;7.20;99.90
52565;DHT22;38460;53.106;7.004;2023-05-27T04:02:39;7.20;99.90
52565;DHT22;38460;53.106;7.004;2023-05-27T04:05:05;7.20;99.90
52565;DHT22;38460;53.106;7.004;2023-05-27T04:07:31;7.20;99.90
52565;DHT22;38460;53.106;7.004;2023-05-27T04:09:57;7.20;99.90
52565;DHT22;38460;53.106;7.004;2023-05-27T04:12:24;7.20;99.90
52565;DHT22;38460;53.106;7.004;2023-05-27T04:14:50;7.20;99.90
52565;DHT22;38460;53.106;7.004;2023-05-27T04:17:16;7.20;99.90
52565;DHT22;38460;53.106;7.004;2023-05-27T04:19:43;7.20;99.90
52565;DHT22;38460;53.106;7.004;2023-05-27T04:22:08;7.20;99.90
52565;DHT22;38460;53.106;7.004;2023-05-27T04:24:34;7.20;99.90
52565;DHT22;38460;53.106;7.004;2023-05-27T04:27:00;7.30;99.90
52565;DHT22;38460;53.106;7.004;2023-05-27T04:29:28;7.30;99.90
52565;DHT22;38460;53.106;7.004;2023-05-27T04:31:54;7.30;99.90
52565;DHT22;38460;53.106;7.004;2023-05-27T04:34:22;7.30;99.90
52565;DHT22;38460;53.106;7.004;2023-05-27T04:36:47;7.30;99.90
52565;DHT22;38460;53.106;7.004;2023-05-27T04:39:15;7.30;99.90
52565;DHT22;38460;53.106;7.004;2023-05-27T04:41:42;7.40;99.90
52565;DHT22;38460;53.106;7.004;2023-05-27T04:44:08;7.40;99.90
52565;DHT22;38460;53.106;7.004;2023-05-27T04:46:34;7.40;99.90
52565;DHT22;38460;53.106;7.004;2023-05-27T04:49:00;7.50;99.90
52565;DHT22;38460;53.106;7.004;2023-05-27T04:51:25;7.50;99.90
52565;DHT22;38460;53.106;7.004;2023-05-27T04:53:52;7.60;99.90
52565;DHT22;38460;53.106;7.004;2023-05-27T04:56:19;7.60;99.90
52565;DHT22;38460;53.106;7.004;2023-05-27T04:58:46;7.70;99.90
52565;DHT22;38460;53.106;7.004;2023-05-27T05:01:14;7.70;99.90
52565;DHT22;38460;53.106;7.004;2023-05-27T05:03:46;7.80;99.90
52565;DHT22;38460;53.106;7.004;2023-05-27T05:06:28;7.90;99.90
52565;DHT22;38460;53.106;7.004;2023-05-27T05:08:53;7.90;99.90
52565;DHT22;38460;53.106;7.004;2023-05-27T05:11:19;8.00;99.90
52565;DHT22;38460;53.106;7.004;2023-05-27T05:13:45;8.20;99.90
52565;DHT22;38460;53.106;7.004;2023-05-27T05:16:11;8.30;99.90
52565;DHT22;38460;53.106;7.004;2023-05-27T05:18:37;8.50;99.90
52565;DHT22;38460;53.106;7.004;2023-05-27T05:21:03;8.70;99.90
52565;DHT22;38460;53.106;7.004;2023-05-27T05:23:30;8.80;99.90
52565;DHT22;38460;53.106;7.004;2023-05-27T05:25:56;9.00;99.90
52565;DHT22;38460;53.106;7.004;2023-05-27T05:28:24;9.10;99.90
52565;DHT22;38460;53.106;7.004;2023-05-27T05:30:50;9.20;99.90
52565;DHT22;38460;53.106;7.004;2023-05-27T05:33:15;9.30;99.90
52565;DHT22;38460;53.106;7.004;2023-05-27T05:35:41;9.40;99.90
52565;DHT22;38460;53.106;7.004;2023-05-27T05:38:07;9.50;99.90
52565;DHT22;38460;53.106;7.004;2023-05-27T05:40:33;9.50;99.90
52565;DHT22;38460;53.106;7.004;2023-05-27T05:42:58;9.60;99.90
52565;DHT22;38460;53.106;7.004;2023-05-27T05:45:24;9.60;99.90
52565;DHT22;38460;53.106;7.004;2023-05-27T05:47:51;9.70;99.90
52565;DHT22;38460;53.106;7.004;2023-05-27T05:50:16;9.70;99.90
52565;DHT22;38460;53.106;7.004;2023-05-27T05:52:42;9.80;99.90
52565;DHT22;38460;53.106;7.004;2023-05-27T05:55:08;9.80;99.90
52565;DHT22;38460;53.106;7.004;2023-05-27T05:57:34;9.80;99.90
52565;DHT22;38460;53.106;7.004;2023-05-27T06:00:00;9.80;99.90
52565;DHT22;38460;53.106;7.004;2023-05-27T06:02:26;9.90;99.90
52565;DHT22;38460;53.106;7.004;2023-05-27T06:04:51;9.90;99.90
52565;DHT22;38460;53.106;7.004;2023-05-27T06:07:17;9.90;99.90
52565;DHT22;38460;53.106;7.004;2023-05-27T06:09:43;10.00;99.90
52565;DHT22;38460;53.106;7.004;2023-05-27T06:12:08;10.10;99.90
52565;DHT22;38460;53.106;7.004;2023-05-27T06:14:34;10.10;99.90
52565;DHT22;38460;53.106;7.004;2023-05-27T06:17:00;10.10;99.90
52565;DHT22;38460;53.106;7.004;2023-05-27T06:19:26;10.10;99.90
52565;DHT22;38460;53.106;7.004;2023-05-27T06:21:52;10.20;99.90
52565;DHT22;38460;53.106;7.004;2023-05-27T06:24:18;10.20;99.90
52565;DHT22;38460;53.106;7.004;2023-05-27T06:26:45;10.20;99.90
52565;DHT22;38460;53.106;7.004;2023-05-27T06:29:10;10.20;99.90
52565;DHT22;38460;53.106;7.004;2023-05-27T06:31:36;10.30;99.90
52565;DHT22;38460;53.106;7.004;2023-05-27T06:34:02;10.30;99.90
52565;DHT22;38460;53.106;7.004;2023-05-27T06:36:28;10.40;99.90
52565;DHT22;38460;53.106;7.004;2023-05-27T06:38:54;10.40;99.90
52565;DHT22;38460;53.106;7.004;2023-05-27T06:41:20;10.50;99.90
52565;DHT22;38460;53.106;7.004;2023-05-27T06:43:45;10.50;99.90
52565;DHT22;38460;53.106;7.004;2023-05-27T06:46:11;10.60;99.90
52565;DHT22;38460;53.106;7.004;2023-05-27T06:48:37;10.60;99.90
52565;DHT22;38460;53.106;7.004;2023-05-27T06:51:03;10.60;99.90
52565;DHT22;38460;53.106;7.004;2023-05-27T06:53:29;10.60;99.90
52565;DHT22;38460;53.106;7.004;2023-05-27T06:55:55;10.60;99.90
52565;DHT22;38460;53.106;7.004;2023-05-27T06:58:21;10.60;99.90
52565;DHT22;38460;53.106;7.004;2023-05-27T07:00:47;10.60;99.90
52565;DHT22;38460;53.106;7.004;2023-05-27T07:03:12;10.60;99.90
52565;DHT22;38460;53.106;7.004;2023-05-27T07:05:38;10.70;99.90
52565;DHT22;38460;53.106;7.004;2023-05-27T07:08:05;10.70;99.90
52565;DHT22;38460;53.106;7.004;2023-05-27T07:10:31;10.80;99.90
52565;DHT22;38460;53.106;7.004;2023-05-27T07:12:57;10.90;99.90
52565;DHT22;38460;53.106;7.004;2023-05-27T07:15:24;11.00;99.90
52565;DHT22;38460;53.106;7.004;2023-05-27T07:17:50;11.00;99.90
52565;DHT22;38460;53.106;7.004;2023-05-27T07:20:16;11.10;99.90
52565;DHT22;38460;53.106;7.004;2023-05-27T07:22:42;11.20;99.90
52565;DHT22;38460;53.106;7.004;2023-05-27T07:25:08;11.30;99.90
52565;DHT22;38460;53.106;7.004;2023-05-27T07:27:33;11.30;99.90
52565;DHT22;38460;53.106;7.004;2023-05-27T07:29:59;11.40;99.90
52565;DHT22;38460;53.106;7.004;2023-05-27T07:32:25;11.50;99.90
52565;DHT22;38460;53.106;7.004;2023-05-27T07:34:51;11.50;99.90
52565;DHT22;38460;53.106;7.004;2023-05-27T07:37:17;11.60;99.90
52565;DHT22;38460;53.106;7.004;2023-05-27T07:39:44;11.60;99.90
52565;DHT22;38460;53.106;7.004;2023-05-27T07:42:10;11.70;99.90
52565;DHT22;38460;53.106;7.004;2023-05-27T07:44:35;11.70;99.90
52565;DHT22;38460;53.106;7.004;2023-05-27T07:47:01;11.80;99.90
52565;DHT22;38460;53.106;7.004;2023-05-27T07:49:27;11.80;99.90
52565;DHT22;38460;53.106;7.004;2023-05-27T07:51:53;11.90;99.90
52565;DHT22;38460;53.106;7.004;2023-05-27T07:54:20;12.00;99.90
52565;DHT22;38460;53.106;7.004;2023-05-27T07:56:45;12.00;99.90
52565;DHT22;38460;53.106;7.004;2023-05-27T07:59:11;12.10;99.90
52565;DHT22;38460;53.106;7.004;2023-05-27T08:01:37;12.20;99.90
52565;DHT22;38460;53.106;7.004;2023-05-27T08:04:02;12.30;99.90
52565;DHT22;38460;53.106;7.004;2023-05-27T08:06:28;12.40;99.90
52565;DHT22;38460;53.106;7.004;2023-05-27T08:08:54;12.50;99.90
52565;DHT22;38460;53.106;7.004;2023-05-27T08:11:19;12.50;99.90
52565;DHT22;38460;53.106;7.004;2023-05-27T08:13:46;12.60;99.90
52565;DHT22;38460;53.106;7.004;2023-05-27T08:16:11;12.60;99.90
52565;DHT22;38460;53.106;7.004;2023-05-27T08:18:37;12.80;99.90
52565;DHT22;38460;53.106;7.004;2023-05-27T08:21:03;12.80;99.90
52565;DHT22;38460;53.106;7.004;2023-05-27T08:23:28;12.90;99.90
52565;DHT22;38460;53.106;7.004;2023-05-27T08:25:54;12.90;99.90
52565;DHT22;38460;53.106;7.004;2023-05-27T08:28:20;13.00;99.90
52565;DHT22;38460;53.106;7.004;2023-05-27T08:30:46;13.00;99.90
52565;DHT22;38460;53.106;7.004;2023-05-27T08:33:13;13.10;99.90
52565;DHT22;38460;53.106;7.004;2023-05-27T08:35:38;13.20;99.90
52565;DHT22;38460;53.106;7.004;2023-05-27T08:38:04;13.20;99.90
52565;DHT22;38460;53.106;7.004;2023-05-27T08:40:30;13.30;99.90
52565;DHT22;38460;53.106;7.004;2023-05-27T08:42:56;13.30;99.90
52565;DHT22;38460;53.106;7.004;2023-05-27T08:45:22;13.40;99.90
52565;DHT22;38460;53.106;7.004;2023-05-27T08:47:47;13.40;99.90
52565;DHT22;38460;53.106;7.004;2023-05-27T08:50:14;13.50;99.90
52565;DHT22;38460;53.106;7.004;2023-05-27T08:52:52;13.50;99.90
52565;DHT22;38460;53.106;7.004;2023-05-27T08:55:21;13.60;99.90
52565;DHT22;38460;53.106;7.004;2023-05-27T08:57:55;13.70;99.90
52565;DHT22;38460;53.106;7.004;2023-05-27T09:00:21;13.80;99.90
52565;DHT22;38460;53.106;7.004;2023-05-27T09:02:47;13.80;99.90
52565;DHT22;38460;53.106;7.004;2023-05-27T09:05:14;13.80;99.90
52565;DHT22;38460;53.106;7.004;2023-05-27T09:07:40;13.90;99.90
52565;DHT22;38460;53.106;7.004;2023-05-27T09:10:06;14.00;99.90
52565;DHT22;38460;53.106;7.004;2023-05-27T09:12:33;14.10;99.90
52565;DHT22;38460;53.106;7.004;2023-05-27T09:14:59;14.10;99.90
52565;DHT22;38460;53.106;7.004;2023-05-27T09:17:26;14.30;99.90
52565;DHT22;38460;53.106;7.004;2023-05-27T09:19:52;14.40;99.90
52565;DHT22;38460;53.106;7.004;2023-05-27T09:22:25;14.40;99.90
52565;DHT22;38460;53.106;7.004;2023-05-27T09:24:54;14.50;99.90
52565;DHT22;38460;53.106;7.004;2023-05-27T09:27:31;14.60;99.90
52565;DHT22;38460;53.106;7.004;2023-05-27T09:30:05;14.60;99.90
52565;DHT22;38460;53.106;7.004;2023-05-27T09:32:32;14.70;99.90
52565;DHT22;38460;53.106;7.004;2023-05-27T09:34:59;14.70;99.90
52565;DHT22;38460;53.106;7.004;2023-05-27T09:37:30;14.80;99.90
52565;DHT22;38460;53.106;7.004;2023-05-27T09:40:04;14.90;99.90
52565;DHT22;38460;53.106;7.004;2023-05-27T09:42:49;15.00;99.90
52565;DHT22;38460;53.106;7.004;2023-05-27T09:45:21;15.10;99.90
52565;DHT22;38460;53.106;7.004;2023-05-27T09:47:50;15.10;99.90
52565;DHT22;38460;53.106;7.004;2023-05-27T09:50:17;15.10;99.90
52565;DHT22;38460;53.106;7.004;2023-05-27T09:52:46;15.30;99.90
52565;DHT22;38460;53.106;7.004;2023-05-27T09:55:13;15.40;99.90
52565;DHT22;38460;53.106;7.004;2023-05-27T09:57:40;15.40;99.90
52565;DHT22;38460;53.106;7.004;2023-05-27T10:00:10;15.50;99.90
52565;DHT22;38460;53.106;7.004;2023-05-27T10:02:45;15.60;99.90
52565;DHT22;38460;53.106;7.004;2023-05-27T10:05:13;15.60;99.90
52565;DHT22;38460;53.106;7.004;2023-05-27T10:07:44;15.70;99.90
52565;DHT22;38460;53.106;7.004;2023-05-27T10:10:11;15.70;99.90
52565;DHT22;38460;53.106;7.004;2023-05-27T10:12:39;15.70;99.90
52565;DHT22;38460;53.106;7.004;2023-05-27T10:15:06;15.80;99.90
52565;DHT22;38460;53.106;7.004;2023-05-27T10:17:49;15.80;99.90
52565;DHT22;38460;53.106;7.004;2023-05-27T10:20:30;15.90;99.90
52565;DHT22;38460;53.106;7.004;2023-05-27T10:25:51;15.90;99.90
52565;DHT22;38460;53.106;7.004;2023-05-27T10:28:43;16.00;99.90
52565;DHT22;38460;53.106;7.004;2023-05-27T10:31:10;16.00;99.90
52565;DHT22;38460;53.106;7.004;2023-05-27T10:33:38;16.10;99.90
52565;DHT22;38460;53.106;7.004;2023-05-27T10:36:16;16.10;99.90
52565;DHT22;38460;53.106;7.004;2023-05-27T10:38:43;16.20;99.90
52565;DHT22;38460;53.106;7.004;2023-05-27T10:41:19;16.20;99.90
52565;DHT22;38460;53.106;7.004;2023-05-27T10:43:57;16.20;99.90
52565;DHT22;38460;53.106;7.004;2023-05-27T10:46:23;16.30;99.90
52565;DHT22;38460;53.106;7.004;2023-05-27T10:48:49;16.50;99.90
52565;DHT22;38460;53.106;7.004;2023-05-27T10:51:15;16.50;99.90
52565;DHT22;38460;53.106;7.004;2023-05-27T10:53:41;16.60;99.90
52565;DHT22;38460;53.106;7.004;2023-05-27T10:56:07;16.70;99.90
52565;DHT22;38460;53.106;7.004;2023-05-27T10:58:35;16.70;99.90
52565;DHT22;38460;53.106;7.004;2023-05-27T11:01:10;16.80;99.90
52565;DHT22;38460;53.106;7.004;2023-05-27T11:03:44;16.90;99.90
52565;DHT22;38460;53.106;7.004;2023-05-27T11:06:11;16.90;99.90
52565;DHT22;38460;53.106;7.004;2023-05-27T11:08:38;16.90;99.90
52565;DHT22;38460;53.106;7.004;2023-05-27T11:11:09;16.90;99.90
52565;DHT22;38460;53.106;7.004;2023-05-27T11:13:36;16.90;99.90
52565;DHT22;38460;53.106;7.004;2023-05-27T11:16:05;16.90;99.90
52565;DHT22;38460;53.106;7.004;2023-05-27T11:18:38;16.90;99.90
52565;DHT22;38460;53.106;7.004;2023-05-27T11:21:05;16.90;99.90
52565;DHT22;38460;53.106;7.004;2023-05-27T11:31:13;17.20;99.90
52565;DHT22;38460;53.106;7.004;2023-05-27T11:33:41;17.40;99.90
52565;DHT22;38460;53.106;7.004;2023-05-27T11:36:12;17.50;99.90
52565;DHT22;38460;53.106;7.004;2023-05-27T11:38:56;17.60;99.90
52565;DHT22;38460;53.106;7.004;2023-05-27T11:41:31;17.70;99.90
52565;DHT22;38460;53.106;7.004;2023-05-27T11:44:03;17.70;99.90
52565;DHT22;38460;53.106;7.004;2023-05-27T11:46:39;17.80;99.90
52565;DHT22;38460;53.106;7.004;2023-05-27T11:49:06;17.80;99.90
52565;DHT22;38460;53.106;7.004;2023-05-27T11:51:37;17.90;99.90
52565;DHT22;38460;53.106;7.004;2023-05-27T11:54:03;18.00;99.90
52565;DHT22;38460;53.106;7.004;2023-05-27T11:56:29;18.10;99.90
52565;DHT22;38460;53.106;7.004;2023-05-27T11:58:56;18.20;99.90
52565;DHT22;38460;53.106;7.004;2023-05-27T12:01:22;18.30;99.90
52565;DHT22;38460;53.106;7.004;2023-05-27T12:03:47;18.40;99.90
52565;DHT22;38460;53.106;7.004;2023-05-27T12:06:13;18.40;99.90
52565;DHT22;38460;53.106;7.004;2023-05-27T12:08:41;18.50;99.90
52565;DHT22;38460;53.106;7.004;2023-05-27T12:11:07;18.60;99.90
52565;DHT22;38460;53.106;7.004;2023-05-27T12:13:33;18.60;99.90
52565;DHT22;38460;53.106;7.004;2023-05-27T12:15:59;18.70;99.90
52565;DHT22;38460;53.106;7.004;2023-05-27T12:18:25;18.80;99.90
52565;DHT22;38460;53.106;7.004;2023-05-27T12:20:50;18.90;99.90
52565;DHT22;38460;53.106;7.004;2023-05-27T12:23:16;19.00;99.90
52565;DHT22;38460;53.106;7.004;2023-05-27T12:25:42;18.90;99.90
52565;DHT22;38460;53.106;7.004;2023-05-27T12:28:08;19.00;99.90
52565;DHT22;38460;53.106;7.004;2023-05-27T12:30:35;19.10;99.90
52565;DHT22;38460;53.106;7.004;2023-05-27T12:33:05;19.20;99.90
52565;DHT22;38460;53.106;7.004;2023-05-27T12:35:32;19.30;99.90
52565;DHT22;38460;53.106;7.004;2023-05-27T12:37:59;19.30;99.90
52565;DHT22;38460;53.106;7.004;2023-05-27T12:40:26;19.40;99.90
52565;DHT22;38460;53.106;7.004;2023-05-27T12:42:52;19.40;99.90
52565;DHT22;38460;53.106;7.004;2023-05-27T12:45:18;19.50;99.90
52565;DHT22;38460;53.106;7.004;2023-05-27T12:47:44;19.70;99.90
52565;DHT22;38460;53.106;7.004;2023-05-27T12:50:10;19.70;99.90
52565;DHT22;38460;53.106;7.004;2023-05-27T12:52:36;19.90;99.90
52565;DHT22;38460;53.106;7.004;2023-05-27T12:55:03;19.90;99.90
52565;DHT22;38460;53.106;7.004;2023-05-27T12:57:29;20.10;99.90
52565;DHT22;38460;53.106;7.004;2023-05-27T12:59:55;20.20;99.90
52565;DHT22;38460;53.106;7.004;2023-05-27T13:02:20;20.40;99.90
52565;DHT22;38460;53.106;7.004;2023-05-27T13:04:46;20.40;99.80
52565;DHT22;38460;53.106;7.004;2023-05-27T13:07:12;20.30;97.40
52565;DHT22;38460;53.106;7.004;2023-05-27T13:09:40;20.20;98.80
52565;DHT22;38460;53.106;7.004;2023-05-27T13:12:06;20.20;98.60
52565;DHT22;38460;53.106;7.004;2023-05-27T13:14:32;20.30;99.20
52565;DHT22;38460;53.106;7.004;2023-05-27T13:16:57;20.40;98.70
52565;DHT22;38460;53.106;7.004;2023-05-27T13:19:23;20.30;98.80
52565;DHT22;38460;53.106;7.004;2023-05-27T13:21:49;20.50;99.30
52565;DHT22;38460;53.106;7.004;2023-05-27T13:24:15;20.60;98.00
52565;DHT22;38460;53.106;7.004;2023-05-27T13:26:42;20.60;98.50
52565;DHT22;38460;53.106;7.004;2023-05-27T13:29:07;20.70;98.30
52565;DHT22;38460;53.106;7.004;2023-05-27T13:31:33;20.50;96.90
52565;DHT22;38460;53.106;7.004;2023-05-27T13:33:59;20.60;97.70
52565;DHT22;38460;53.106;7.004;2023-05-27T13:36:25;20.90;98.60
52565;DHT22;38460;53.106;7.004;2023-05-27T13:38:51;21.10;99.00
52565;DHT22;38460;53.106;7.004;2023-05-27T13:41:16;21.20;97.90
52565;DHT22;38460;53.106;7.004;2023-05-27T13:43:42;21.20;97.50
52565;DHT22;38460;53.106;7.004;2023-05-27T13:46:08;21.20;97.00
52565;DHT22;38460;53.106;7.004;2023-05-27T13:48:33;21.30;97.60
52565;DHT22;38460;53.106;7.004;2023-05-27T13:50:59;21.60;98.40
52565;DHT22;38460;53.106;7.004;2023-05-27T13:53:25;21.50;97.00
52565;DHT22;38460;53.106;7.004;2023-05-27T13:55:51;21.60;96.70
52565;DHT22;38460;53.106;7.004;2023-05-27T13:58:17;21.60;95.60
52565;DHT22;38460;53.106;7.004;2023-05-27T14:00:43;21.80;96.70
52565;DHT22;38460;53.106;7.004;2023-05-27T14:03:09;22.00;96.50
52565;DHT22;38460;53.106;7.004;2023-05-27T14:05:35;22.10;95.40
52565;DHT22;38460;53.106;7.004;2023-05-27T14:08:02;22.20;95.80
52565;DHT22;38460;53.106;7.004;2023-05-27T14:10:31;22.20;94.80
52565;DHT22;38460;53.106;7.004;2023-05-27T14:12:57;22.30;94.90
52565;DHT22;38460;53.106;7.004;2023-05-27T14:15:23;22.30;94.80
52565;DHT22;38460;53.106;7.004;2023-05-27T14:17:53;22.40;95.20
52565;DHT22;38460;53.106;7.004;2023-05-27T14:20:19;22.60;95.00
52565;DHT22;38460;53.106;7.004;2023-05-27T14:22:45;22.60;94.70
52565;DHT22;38460;53.106;7.004;2023-05-27T14:25:11;22.60;94.60
52565;DHT22;38460;53.106;7.004;2023-05-27T14:27:37;22.70;94.20
52565;DHT22;38460;53.106;7.004;2023-05-27T14:30:05;22.70;94.30
52565;DHT22;38460;53.106;7.004;2023-05-27T14:32:31;22.80;93.90
52565;DHT22;38460;53.106;7.004;2023-05-27T14:34:56;22.90;92.80
52565;DHT22;38460;53.106;7.004;2023-05-27T14:37:22;22.90;93.10
52565;DHT22;38460;53.106;7.004;2023-05-27T14:39:50;22.80;92.50
52565;DHT22;38460;53.106;7.004;2023-05-27T14:42:15;22.80;92.60
52565;DHT22;38460;53.106;7.004;2023-05-27T14:44:41;22.80;91.90
52565;DHT22;38460;53.106;7.004;2023-05-27T14:47:07;22.60;92.40
52565;DHT22;38460;53.106;7.004;2023-05-27T14:49:32;22.60;92.60
52565;DHT22;38460;53.106;7.004;2023-05-27T14:51:58;22.70;92.60
52565;DHT22;38460;53.106;7.004;2023-05-27T14:54:24;23.00;93.50
52565;DHT22;38460;53.106;7.004;2023-05-27T14:56:50;23.30;93.20
52565;DHT22;38460;53.106;7.004;2023-05-27T14:59:15;23.40;92.30
52565;DHT22;38460;53.106;7.004;2023-05-27T15:01:41;23.50;92.70
52565;DHT22;38460;53.106;7.004;2023-05-27T15:04:08;23.50;91.70
52565;DHT22;38460;53.106;7.004;2023-05-27T15:06:34;23.20;90.60
52565;DHT22;38460;53.106;7.004;2023-05-27T15:09:01;23.20;90.60
52565;DHT22;38460;53.106;7.004;2023-05-27T15:11:26;23.10;90.40
52565;DHT22;38460;53.106;7.004;2023-05-27T15:13:52;23.10;90.50
52565;DHT22;38460;53.106;7.004;2023-05-27T15:16:21;23.10;90.60
52565;DHT22;38460;53.106;7.004;2023-05-27T15:18:46;23.10;90.60
52565;DHT22;38460;53.106;7.004;2023-05-27T15:21:12;23.20;90.90
52565;DHT22;38460;53.106;7.004;2023-05-27T15:23:38;23.40;91.20
52565;DHT22;38460;53.106;7.004;2023-05-27T15:26:05;23.50;90.00
52565;DHT22;38460;53.106;7.004;2023-05-27T15:28:31;23.40;89.90
52565;DHT22;38460;53.106;7.004;2023-05-27T15:30:56;23.40;90.00
52565;DHT22;38460;53.106;7.004;2023-05-27T15:33:22;23.20;90.00
52565;DHT22;38460;53.106;7.004;2023-05-27T15:35:48;23.20;90.10
52565;DHT22;38460;53.106;7.004;2023-05-27T15:38:14;23.40;90.70
52565;DHT22;38460;53.106;7.004;2023-05-27T15:40:43;23.40;90.10
52565;DHT22;38460;53.106;7.004;2023-05-27T15:43:10;23.60;90.50
52565;DHT22;38460;53.106;7.004;2023-05-27T15:45:37;23.60;89.80
52565;DHT22;38460;53.106;7.004;2023-05-27T15:48:06;23.40;89.00